sensor_id;sensor_type;location;lat;lon;timestamp;P1;durP1;ratioP1;P2;durP2;ratioP2
2874;SDS011;1445;52.600;13.328;2022-09-17T00:00:21;13.60;;;6.03;;
2874;SDS011;1445;52.600;13.328;2022-09-17T00:02:50;12.65;;;6.75;;
2874;SDS011;1445;52.600;13.328;2022-09-17T00:05:19;14.10;;;5.93;;
2874;SDS011;1445;52.600;13.328;2022-09-17T00:07:44;16.02;;;6.40;;
2874;SDS011;1445;52.600;13.328;2022-09-17T00:10:10;15.05;;;6.50;;
2874;SDS011;1445;52.600;13.328;2022-09-17T00:12:35;14.85;;;6.35;;
2874;SDS011;1445;52.600;13.328;2022-09-17T00:15:00;12.60;;;6.55;;
2874;SDS011;1445;52.600;13.328;2022-09-17T00:17:25;13.82;;;6.30;;
2874;SDS011;1445;52.600;13.328;2022-09-17T00:19:50;18.63;;;6.32;;
2874;SDS011;1445;52.600;13.328;2022-09-17T00:22:16;13.77;;;6.25;;
2874;SDS011;1445;52.600;13.328;2022-09-17T00:24:41;13.00;;;5.93;;
2874;SDS011;1445;52.600;13.328;2022-09-17T00:27:06;15.40;;;6.22;;
2874;SDS011;1445;52.600;13.328;2022-09-17T00:29:32;18.55;;;7.03;;
2874;SDS011;1445;52.600;13.328;2022-09-17T00:31:57;16.13;;;6.60;;
2874;SDS011;1445;52.600;13.328;2022-09-17T00:34:22;17.23;;;6.85;;
2874;SDS011;1445;52.600;13.328;2022-09-17T00:36:47;14.05;;;6.55;;
2874;SDS011;1445;52.600;13.328;2022-09-17T00:39:12;16.70;;;6.20;;
2874;SDS011;1445;52.600;13.328;2022-09-17T00:41:39;13.57;;;5.80;;
2874;SDS011;1445;52.600;13.328;2022-09-17T00:46:49;12.50;;;6.03;;
2874;SDS011;1445;52.600;13.328;2022-09-17T00:49:20;14.70;;;6.55;;
2874;SDS011;1445;52.600;13.328;2022-09-17T00:51:54;15.05;;;6.45;;
2874;SDS011;1445;52.600;13.328;2022-09-17T00:54:21;17.05;;;5.88;;
2874;SDS011;1445;52.600;13.328;2022-09-17T00:56:47;19.17;;;6.43;;
2874;SDS011;1445;52.600;13.328;2022-09-17T00:59:13;14.68;;;6.60;;
2874;SDS011;1445;52.600;13.328;2022-09-17T01:01:39;17.17;;;6.57;;
2874;SDS011;1445;52.600;13.328;2022-09-17T01:04:04;19.00;;;6.32;;
2874;SDS011;1445;52.600;13.328;2022-09-17T01:16:54;14.38;;;6.25;;
2874;SDS011;1445;52.600;13.328;2022-09-17T01:22:13;14.57;;;6.25;;
2874;SDS011;1445;52.600;13.328;2022-09-17T01:24:45;11.15;;;5.25;;
2874;SDS011;1445;52.600;13.328;2022-09-17T01:30:09;10.77;;;5.57;;
2874;SDS011;1445;52.600;13.328;2022-09-17T01:37:30;11.70;;;5.75;;
2874;SDS011;1445;52.600;13.328;2022-09-17T01:50:02;12.80;;;6.13;;
2874;SDS011;1445;52.600;13.328;2022-09-17T01:52:28;13.40;;;6.43;;
2874;SDS011;1445;52.600;13.328;2022-09-17T01:54:56;13.77;;;6.60;;
2874;SDS011;1445;52.600;13.328;2022-09-17T01:57:26;19.60;;;6.35;;
2874;SDS011;1445;52.600;13.328;2022-09-17T01:59:58;19.38;;;6.57;;
2874;SDS011;1445;52.600;13.328;2022-09-17T02:03:08;17.65;;;8.13;;
2874;SDS011;1445;52.600;13.328;2022-09-17T02:05:18;17.38;;;7.18;;
2874;SDS011;1445;52.600;13.328;2022-09-17T02:07:49;18.75;;;7.18;;
2874;SDS011;1445;52.600;13.328;2022-09-17T02:10:17;23.92;;;7.95;;
2874;SDS011;1445;52.600;13.328;2022-09-17T02:12:45;15.52;;;7.30;;
2874;SDS011;1445;52.600;13.328;2022-09-17T02:15:15;18.73;;;7.57;;
2874;SDS011;1445;52.600;13.328;2022-09-17T02:20:10;16.73;;;7.80;;
2874;SDS011;1445;52.600;13.328;2022-09-17T02:22:37;22.60;;;7.70;;
2874;SDS011;1445;52.600;13.328;2022-09-17T02:25:05;26.25;;;8.48;;
2874;SDS011;1445;52.600;13.328;2022-09-17T02:29:56;22.02;;;7.85;;
2874;SDS011;1445;52.600;13.328;2022-09-17T02:32:21;21.58;;;7.70;;
2874;SDS011;1445;52.600;13.328;2022-09-17T02:34:48;26.42;;;8.15;;
2874;SDS011;1445;52.600;13.328;2022-09-17T02:37:14;22.65;;;8.02;;
2874;SDS011;1445;52.600;13.328;2022-09-17T02:39:39;18.38;;;7.68;;
2874;SDS011;1445;52.600;13.328;2022-09-17T02:44:40;24.50;;;8.65;;
2874;SDS011;1445;52.600;13.328;2022-09-17T02:50:05;21.77;;;8.40;;
2874;SDS011;1445;52.600;13.328;2022-09-17T02:52:43;22.98;;;8.13;;
2874;SDS011;1445;52.600;13.328;2022-09-17T03:00:20;23.67;;;8.25;;
2874;SDS011;1445;52.600;13.328;2022-09-17T03:02:48;19.27;;;7.97;;
2874;SDS011;1445;52.600;13.328;2022-09-17T03:05:14;21.02;;;8.80;;
2874;SDS011;1445;52.600;13.328;2022-09-17T03:07:41;30.90;;;8.43;;
2874;SDS011;1445;52.600;13.328;2022-09-17T03:10:06;19.23;;;8.40;;
2874;SDS011;1445;52.600;13.328;2022-09-17T03:12:31;28.40;;;8.43;;
2874;SDS011;1445;52.600;13.328;2022-09-17T03:14:57;24.75;;;8.13;;
2874;SDS011;1445;52.600;13.328;2022-09-17T03:17:23;21.52;;;8.52;;
2874;SDS011;1445;52.600;13.328;2022-09-17T03:19:48;24.40;;;7.85;;
2874;SDS011;1445;52.600;13.328;2022-09-17T03:22:13;17.95;;;7.70;;
2874;SDS011;1445;52.600;13.328;2022-09-17T03:24:39;18.88;;;6.90;;
2874;SDS011;1445;52.600;13.328;2022-09-17T03:27:04;17.00;;;7.28;;
2874;SDS011;1445;52.600;13.328;2022-09-17T03:29:29;21.95;;;7.18;;
2874;SDS011;1445;52.600;13.328;2022-09-17T03:31:55;17.95;;;6.82;;
2874;SDS011;1445;52.600;13.328;2022-09-17T03:34:20;14.95;;;6.32;;
2874;SDS011;1445;52.600;13.328;2022-09-17T03:36:45;25.27;;;7.55;;
2874;SDS011;1445;52.600;13.328;2022-09-17T03:39:10;19.08;;;7.10;;
2874;SDS011;1445;52.600;13.328;2022-09-17T03:41:36;26.58;;;7.22;;
2874;SDS011;1445;52.600;13.328;2022-09-17T03:44:01;21.58;;;6.43;;
2874;SDS011;1445;52.600;13.328;2022-09-17T03:46:26;21.75;;;6.47;;
2874;SDS011;1445;52.600;13.328;2022-09-17T03:48:51;17.15;;;6.30;;
2874;SDS011;1445;52.600;13.328;2022-09-17T03:51:17;15.70;;;6.20;;
2874;SDS011;1445;52.600;13.328;2022-09-17T03:53:42;19.80;;;7.05;;
2874;SDS011;1445;52.600;13.328;2022-09-17T03:56:07;17.98;;;7.20;;
2874;SDS011;1445;52.600;13.328;2022-09-17T03:58:32;22.80;;;7.43;;
2874;SDS011;1445;52.600;13.328;2022-09-17T04:00:58;16.23;;;6.97;;
2874;SDS011;1445;52.600;13.328;2022-09-17T04:03:24;22.48;;;7.15;;
2874;SDS011;1445;52.600;13.328;2022-09-17T04:05:49;17.73;;;7.07;;
2874;SDS011;1445;52.600;13.328;2022-09-17T04:08:14;23.42;;;6.18;;
2874;SDS011;1445;52.600;13.328;2022-09-17T04:10:40;18.80;;;6.18;;
2874;SDS011;1445;52.600;13.328;2022-09-17T04:13:05;15.25;;;6.05;;
2874;SDS011;1445;52.600;13.328;2022-09-17T04:15:31;21.13;;;6.80;;
2874;SDS011;1445;52.600;13.328;2022-09-17T04:17:56;19.48;;;6.35;;
2874;SDS011;1445;52.600;13.328;2022-09-17T04:20:22;22.45;;;7.15;;
2874;SDS011;1445;52.600;13.328;2022-09-17T04:22:47;23.25;;;6.72;;
2874;SDS011;1445;52.600;13.328;2022-09-17T04:25:13;23.00;;;7.00;;
2874;SDS011;1445;52.600;13.328;2022-09-17T04:27:38;28.95;;;7.72;;
2874;SDS011;1445;52.600;13.328;2022-09-17T04:30:03;20.58;;;7.45;;
2874;SDS011;1445;52.600;13.328;2022-09-17T04:32:28;17.77;;;6.57;;
2874;SDS011;1445;52.600;13.328;2022-09-17T04:34:54;17.65;;;6.43;;
2874;SDS011;1445;52.600;13.328;2022-09-17T04:37:19;18.77;;;6.45;;
2874;SDS011;1445;52.600;13.328;2022-09-17T04:39:45;25.02;;;6.88;;
2874;SDS011;1445;52.600;13.328;2022-09-17T04:42:11;16.98;;;6.55;;
2874;SDS011;1445;52.600;13.328;2022-09-17T04:44:36;21.75;;;6.18;;
2874;SDS011;1445;52.600;13.328;2022-09-17T04:47:01;22.15;;;7.05;;
2874;SDS011;1445;52.600;13.328;2022-09-17T04:49:26;17.58;;;6.32;;
2874;SDS011;1445;52.600;13.328;2022-09-17T04:51:53;20.60;;;6.57;;
2874;SDS011;1445;52.600;13.328;2022-09-17T04:54:19;23.63;;;6.32;;
2874;SDS011;1445;52.600;13.328;2022-09-17T04:56:44;18.40;;;5.70;;
2874;SDS011;1445;52.600;13.328;2022-09-17T04:59:09;22.73;;;6.72;;
2874;SDS011;1445;52.600;13.328;2022-09-17T05:01:34;20.13;;;6.32;;
2874;SDS011;1445;52.600;13.328;2022-09-17T05:04:00;22.77;;;7.03;;
2874;SDS011;1445;52.600;13.328;2022-09-17T05:06:25;32.35;;;7.95;;
2874;SDS011;1445;52.600;13.328;2022-09-17T05:08:50;17.92;;;5.97;;
2874;SDS011;1445;52.600;13.328;2022-09-17T05:11:15;21.80;;;5.95;;
2874;SDS011;1445;52.600;13.328;2022-09-17T05:13:41;17.52;;;7.30;;
2874;SDS011;1445;52.600;13.328;2022-09-17T05:16:06;23.42;;;6.50;;
2874;SDS011;1445;52.600;13.328;2022-09-17T05:18:31;20.67;;;6.50;;
2874;SDS011;1445;52.600;13.328;2022-09-17T05:20:56;24.30;;;6.60;;
2874;SDS011;1445;52.600;13.328;2022-09-17T05:23:22;20.73;;;6.40;;
2874;SDS011;1445;52.600;13.328;2022-09-17T05:25:47;25.52;;;7.18;;
2874;SDS011;1445;52.600;13.328;2022-09-17T05:28:12;21.85;;;6.68;;
2874;SDS011;1445;52.600;13.328;2022-09-17T05:30:37;20.58;;;6.40;;
2874;SDS011;1445;52.600;13.328;2022-09-17T05:33:04;23.58;;;7.15;;
2874;SDS011;1445;52.600;13.328;2022-09-17T05:35:31;17.08;;;6.30;;
2874;SDS011;1445;52.600;13.328;2022-09-17T05:37:57;20.00;;;6.85;;
2874;SDS011;1445;52.600;13.328;2022-09-17T05:40:22;17.80;;;6.45;;
2874;SDS011;1445;52.600;13.328;2022-09-17T05:42:47;18.75;;;6.03;;
2874;SDS011;1445;52.600;13.328;2022-09-17T05:45:13;24.67;;;6.57;;
2874;SDS011;1445;52.600;13.328;2022-09-17T05:47:38;23.67;;;6.28;;
2874;SDS011;1445;52.600;13.328;2022-09-17T05:50:03;22.98;;;6.75;;
2874;SDS011;1445;52.600;13.328;2022-09-17T05:52:29;22.20;;;6.15;;
2874;SDS011;1445;52.600;13.328;2022-09-17T05:54:54;17.15;;;6.43;;
2874;SDS011;1445;52.600;13.328;2022-09-17T05:57:20;16.98;;;6.47;;
2874;SDS011;1445;52.600;13.328;2022-09-17T05:59:45;21.00;;;6.57;;
2874;SDS011;1445;52.600;13.328;2022-09-17T06:02:12;20.33;;;6.22;;
2874;SDS011;1445;52.600;13.328;2022-09-17T06:04:37;23.95;;;6.18;;
2874;SDS011;1445;52.600;13.328;2022-09-17T06:07:03;25.92;;;7.15;;
2874;SDS011;1445;52.600;13.328;2022-09-17T06:09:30;17.40;;;6.40;;
2874;SDS011;1445;52.600;13.328;2022-09-17T06:11:55;20.70;;;6.32;;
2874;SDS011;1445;52.600;13.328;2022-09-17T06:14:20;26.10;;;6.03;;
2874;SDS011;1445;52.600;13.328;2022-09-17T06:16:45;20.95;;;5.65;;
2874;SDS011;1445;52.600;13.328;2022-09-17T06:19:10;19.80;;;6.00;;
2874;SDS011;1445;52.600;13.328;2022-09-17T06:21:36;21.15;;;6.28;;
2874;SDS011;1445;52.600;13.328;2022-09-17T06:24:01;27.55;;;6.43;;
2874;SDS011;1445;52.600;13.328;2022-09-17T06:26:26;21.80;;;6.05;;
2874;SDS011;1445;52.600;13.328;2022-09-17T06:28:51;21.13;;;6.25;;
2874;SDS011;1445;52.600;13.328;2022-09-17T06:31:17;19.05;;;5.60;;
2874;SDS011;1445;52.600;13.328;2022-09-17T06:33:42;24.35;;;5.80;;
2874;SDS011;1445;52.600;13.328;2022-09-17T06:36:08;15.43;;;4.90;;
2874;SDS011;1445;52.600;13.328;2022-09-17T06:38:35;18.80;;;6.63;;
2874;SDS011;1445;52.600;13.328;2022-09-17T06:41:00;16.35;;;5.55;;
2874;SDS011;1445;52.600;13.328;2022-09-17T06:43:25;18.17;;;5.72;;
2874;SDS011;1445;52.600;13.328;2022-09-17T06:45:54;21.02;;;6.13;;
2874;SDS011;1445;52.600;13.328;2022-09-17T06:48:20;22.90;;;6.07;;
2874;SDS011;1445;52.600;13.328;2022-09-17T06:50:46;17.88;;;5.50;;
2874;SDS011;1445;52.600;13.328;2022-09-17T06:53:11;20.77;;;5.80;;
2874;SDS011;1445;52.600;13.328;2022-09-17T06:55:36;15.60;;;5.70;;
2874;SDS011;1445;52.600;13.328;2022-09-17T06:58:01;14.02;;;4.50;;
2874;SDS011;1445;52.600;13.328;2022-09-17T07:00:26;20.10;;;4.95;;
2874;SDS011;1445;52.600;13.328;2022-09-17T07:02:56;15.23;;;4.47;;
2874;SDS011;1445;52.600;13.328;2022-09-17T07:05:21;16.75;;;4.78;;
2874;SDS011;1445;52.600;13.328;2022-09-17T07:07:47;19.02;;;5.45;;
2874;SDS011;1445;52.600;13.328;2022-09-17T07:10:12;14.52;;;4.70;;
2874;SDS011;1445;52.600;13.328;2022-09-17T07:12:39;20.67;;;5.57;;
2874;SDS011;1445;52.600;13.328;2022-09-17T07:15:04;20.10;;;4.70;;
2874;SDS011;1445;52.600;13.328;2022-09-17T07:17:29;19.58;;;5.50;;
2874;SDS011;1445;52.600;13.328;2022-09-17T07:19:55;17.73;;;4.72;;
2874;SDS011;1445;52.600;13.328;2022-09-17T07:22:20;15.70;;;4.45;;
2874;SDS011;1445;52.600;13.328;2022-09-17T07:24:48;15.15;;;5.32;;
2874;SDS011;1445;52.600;13.328;2022-09-17T07:27:13;14.52;;;4.93;;
2874;SDS011;1445;52.600;13.328;2022-09-17T07:29:39;15.60;;;4.13;;
2874;SDS011;1445;52.600;13.328;2022-09-17T07:32:05;15.27;;;4.25;;
2874;SDS011;1445;52.600;13.328;2022-09-17T07:34:31;19.75;;;4.95;;
2874;SDS011;1445;52.600;13.328;2022-09-17T07:36:56;19.23;;;4.22;;
2874;SDS011;1445;52.600;13.328;2022-09-17T07:39:21;13.98;;;4.72;;
2874;SDS011;1445;52.600;13.328;2022-09-17T07:41:46;13.93;;;3.75;;
2874;SDS011;1445;52.600;13.328;2022-09-17T07:44:12;19.17;;;3.63;;
2874;SDS011;1445;52.600;13.328;2022-09-17T07:46:37;17.73;;;4.80;;
2874;SDS011;1445;52.600;13.328;2022-09-17T07:49:02;10.77;;;3.47;;
2874;SDS011;1445;52.600;13.328;2022-09-17T07:51:27;14.00;;;3.35;;
2874;SDS011;1445;52.600;13.328;2022-09-17T07:53:53;10.88;;;3.25;;
2874;SDS011;1445;52.600;13.328;2022-09-17T07:56:19;14.15;;;3.28;;
2874;SDS011;1445;52.600;13.328;2022-09-17T07:58:44;14.50;;;4.03;;
2874;SDS011;1445;52.600;13.328;2022-09-17T08:01:10;17.50;;;4.22;;
2874;SDS011;1445;52.600;13.328;2022-09-17T08:03:36;13.65;;;3.45;;
2874;SDS011;1445;52.600;13.328;2022-09-17T08:06:06;14.13;;;3.13;;
2874;SDS011;1445;52.600;13.328;2022-09-17T08:08:32;14.45;;;3.42;;
2874;SDS011;1445;52.600;13.328;2022-09-17T08:11:01;13.35;;;3.45;;
2874;SDS011;1445;52.600;13.328;2022-09-17T08:13:27;14.20;;;3.00;;
2874;SDS011;1445;52.600;13.328;2022-09-17T08:15:54;13.00;;;2.88;;
2874;SDS011;1445;52.600;13.328;2022-09-17T08:18:21;11.68;;;3.75;;
2874;SDS011;1445;52.600;13.328;2022-09-17T08:20:46;10.07;;;2.88;;
2874;SDS011;1445;52.600;13.328;2022-09-17T08:23:11;13.07;;;3.30;;
2874;SDS011;1445;52.600;13.328;2022-09-17T08:25:37;11.73;;;2.95;;
2874;SDS011;1445;52.600;13.328;2022-09-17T08:28:02;8.02;;;2.88;;
2874;SDS011;1445;52.600;13.328;2022-09-17T08:30:28;11.50;;;2.95;;
2874;SDS011;1445;52.600;13.328;2022-09-17T08:32:56;11.20;;;3.35;;
2874;SDS011;1445;52.600;13.328;2022-09-17T08:35:21;13.95;;;3.72;;
2874;SDS011;1445;52.600;13.328;2022-09-17T08:37:48;14.50;;;2.97;;
2874;SDS011;1445;52.600;13.328;2022-09-17T08:40:17;10.98;;;2.45;;
2874;SDS011;1445;52.600;13.328;2022-09-17T08:42:48;11.07;;;3.20;;
2874;SDS011;1445;52.600;13.328;2022-09-17T08:45:15;9.55;;;2.90;;
2874;SDS011;1445;52.600;13.328;2022-09-17T08:47:43;12.52;;;3.13;;
2874;SDS011;1445;52.600;13.328;2022-09-17T08:58:04;9.65;;;2.53;;
2874;SDS011;1445;52.600;13.328;2022-09-17T09:00:35;9.30;;;2.42;;
2874;SDS011;1445;52.600;13.328;2022-09-17T09:03:19;10.63;;;2.70;;
2874;SDS011;1445;52.600;13.328;2022-09-17T09:05:51;10.20;;;2.92;;
2874;SDS011;1445;52.600;13.328;2022-09-17T09:08:34;8.32;;;2.50;;
2874;SDS011;1445;52.600;13.328;2022-09-17T09:11:04;9.68;;;2.35;;
2874;SDS011;1445;52.600;13.328;2022-09-17T09:13:35;8.30;;;2.85;;
2874;SDS011;1445;52.600;13.328;2022-09-17T09:16:10;8.02;;;2.40;;
2874;SDS011;1445;52.600;13.328;2022-09-17T09:18:37;11.30;;;2.28;;
2874;SDS011;1445;52.600;13.328;2022-09-17T09:21:17;13.35;;;2.65;;
2874;SDS011;1445;52.600;13.328;2022-09-17T09:23:53;12.95;;;2.97;;
2874;SDS011;1445;52.600;13.328;2022-09-17T09:32:04;8.55;;;2.70;;
2874;SDS011;1445;52.600;13.328;2022-09-17T09:34:31;10.75;;;2.65;;
2874;SDS011;1445;52.600;13.328;2022-09-17T09:37:04;14.10;;;2.90;;
2874;SDS011;1445;52.600;13.328;2022-09-17T09:39:34;8.82;;;2.55;;
2874;SDS011;1445;52.600;13.328;2022-09-17T09:42:02;5.13;;;2.22;;
2874;SDS011;1445;52.600;13.328;2022-09-17T09:44:28;7.43;;;2.33;;
2874;SDS011;1445;52.600;13.328;2022-09-17T09:56:58;6.85;;;2.25;;
2874;SDS011;1445;52.600;13.328;2022-09-17T09:59:27;6.65;;;1.90;;
2874;SDS011;1445;52.600;13.328;2022-09-17T10:01:52;7.43;;;2.45;;
2874;SDS011;1445;52.600;13.328;2022-09-17T10:04:19;9.95;;;2.08;;
2874;SDS011;1445;52.600;13.328;2022-09-17T10:06:45;7.45;;;2.08;;
2874;SDS011;1445;52.600;13.328;2022-09-17T10:09:11;7.40;;;2.30;;
2874;SDS011;1445;52.600;13.328;2022-09-17T10:11:37;9.40;;;1.73;;
2874;SDS011;1445;52.600;13.328;2022-09-17T10:14:13;8.93;;;2.15;;
2874;SDS011;1445;52.600;13.328;2022-09-17T10:16:38;6.40;;;2.35;;
2874;SDS011;1445;52.600;13.328;2022-09-17T10:21:30;6.82;;;1.80;;
2874;SDS011;1445;52.600;13.328;2022-09-17T10:23:55;6.55;;;1.75;;
2874;SDS011;1445;52.600;13.328;2022-09-17T10:26:33;6.38;;;1.90;;
2874;SDS011;1445;52.600;13.328;2022-09-17T10:29:01;12.10;;;2.17;;
2874;SDS011;1445;52.600;13.328;2022-09-17T10:31:27;8.55;;;2.22;;
2874;SDS011;1445;52.600;13.328;2022-09-17T10:34:11;10.80;;;2.60;;
2874;SDS011;1445;52.600;13.328;2022-09-17T10:36:43;8.93;;;2.40;;
2874;SDS011;1445;52.600;13.328;2022-09-17T10:41:52;16.88;;;3.13;;
2874;SDS011;1445;52.600;13.328;2022-09-17T10:44:22;11.57;;;2.63;;
2874;SDS011;1445;52.600;13.328;2022-09-17T10:46:47;10.85;;;2.17;;
2874;SDS011;1445;52.600;13.328;2022-09-17T10:52:03;9.73;;;2.80;;
2874;SDS011;1445;52.600;13.328;2022-09-17T10:57:17;8.68;;;2.75;;
2874;SDS011;1445;52.600;13.328;2022-09-17T10:59:48;7.47;;;2.70;;
2874;SDS011;1445;52.600;13.328;2022-09-17T11:04:50;8.80;;;2.47;;
2874;SDS011;1445;52.600;13.328;2022-09-17T11:30:23;5.32;;;1.90;;
2874;SDS011;1445;52.600;13.328;2022-09-17T11:35:36;6.57;;;2.20;;
2874;SDS011;1445;52.600;13.328;2022-09-17T11:38:11;8.15;;;2.28;;
2874;SDS011;1445;52.600;13.328;2022-09-17T11:45:38;5.75;;;1.95;;
2874;SDS011;1445;52.600;13.328;2022-09-17T11:48:12;9.45;;;2.92;;
2874;SDS011;1445;52.600;13.328;2022-09-17T11:50:40;8.20;;;2.30;;
2874;SDS011;1445;52.600;13.328;2022-09-17T11:55:49;6.68;;;2.13;;
2874;SDS011;1445;52.600;13.328;2022-09-17T11:58:28;8.43;;;1.80;;
2874;SDS011;1445;52.600;13.328;2022-09-17T12:01:01;3.22;;;1.33;;
2874;SDS011;1445;52.600;13.328;2022-09-17T12:05:54;4.17;;;1.57;;
2874;SDS011;1445;52.600;13.328;2022-09-17T12:08:21;2.92;;;1.10;;
2874;SDS011;1445;52.600;13.328;2022-09-17T12:10:57;4.03;;;1.25;;
2874;SDS011;1445;52.600;13.328;2022-09-17T12:13:33;4.93;;;1.40;;
2874;SDS011;1445;52.600;13.328;2022-09-17T12:16:15;4.38;;;1.20;;
2874;SDS011;1445;52.600;13.328;2022-09-17T12:18:48;6.35;;;1.52;;
2874;SDS011;1445;52.600;13.328;2022-09-17T12:21:15;3.63;;;0.93;;
2874;SDS011;1445;52.600;13.328;2022-09-17T12:23:43;5.15;;;0.90;;
2874;SDS011;1445;52.600;13.328;2022-09-17T12:31:50;3.38;;;1.13;;
2874;SDS011;1445;52.600;13.328;2022-09-17T12:34:22;2.85;;;0.73;;
2874;SDS011;1445;52.600;13.328;2022-09-17T12:36:56;3.15;;;0.88;;
2874;SDS011;1445;52.600;13.328;2022-09-17T12:49:36;6.37;;;1.17;;
2874;SDS011;1445;52.600;13.328;2022-09-17T12:52:09;3.28;;;0.85;;
2874;SDS011;1445;52.600;13.328;2022-09-17T13:02:30;6.93;;;1.30;;
2874;SDS011;1445;52.600;13.328;2022-09-17T13:07:46;5.10;;;1.38;;
2874;SDS011;1445;52.600;13.328;2022-09-17T13:13:51;3.42;;;1.13;;
2874;SDS011;1445;52.600;13.328;2022-09-17T13:16:06;3.50;;;1.08;;
2874;SDS011;1445;52.600;13.328;2022-09-17T13:21:12;2.83;;;1.03;;
2874;SDS011;1445;52.600;13.328;2022-09-17T13:26:04;4.20;;;1.25;;
2874;SDS011;1445;52.600;13.328;2022-09-17T13:28:37;5.38;;;1.00;;
2874;SDS011;1445;52.600;13.328;2022-09-17T13:31:03;4.05;;;1.20;;
2874;SDS011;1445;52.600;13.328;2022-09-17T13:38:59;6.90;;;1.13;;
2874;SDS011;1445;52.600;13.328;2022-09-17T13:41:25;7.55;;;1.30;;
2874;SDS011;1445;52.600;13.328;2022-09-17T13:43:50;4.10;;;1.77;;
2874;SDS011;1445;52.600;13.328;2022-09-17T13:46:20;4.10;;;1.15;;
2874;SDS011;1445;52.600;13.328;2022-09-17T13:48:47;4.10;;;1.15;;
2874;SDS011;1445;52.600;13.328;2022-09-17T13:54:08;3.08;;;1.00;;
2874;SDS011;1445;52.600;13.328;2022-09-17T13:56:44;4.03;;;1.20;;
2874;SDS011;1445;52.600;13.328;2022-09-17T13:59:18;4.22;;;1.13;;
2874;SDS011;1445;52.600;13.328;2022-09-17T14:04:29;6.70;;;1.83;;
2874;SDS011;1445;52.600;13.328;2022-09-17T14:06:54;3.75;;;1.10;;
2874;SDS011;1445;52.600;13.328;2022-09-17T14:09:39;4.30;;;0.85;;
2874;SDS011;1445;52.600;13.328;2022-09-17T14:14:52;4.68;;;0.77;;
2874;SDS011;1445;52.600;13.328;2022-09-17T14:20:17;3.30;;;1.10;;
2874;SDS011;1445;52.600;13.328;2022-09-17T14:22:42;4.25;;;0.95;;
2874;SDS011;1445;52.600;13.328;2022-09-17T14:25:14;5.32;;;1.13;;
2874;SDS011;1445;52.600;13.328;2022-09-17T14:27:50;7.03;;;1.08;;
2874;SDS011;1445;52.600;13.328;2022-09-17T14:30:29;2.22;;;0.73;;
2874;SDS011;1445;52.600;13.328;2022-09-17T14:33:06;3.25;;;0.80;;
2874;SDS011;1445;52.600;13.328;2022-09-17T14:35:36;4.65;;;0.90;;
2874;SDS011;1445;52.600;13.328;2022-09-17T14:40:27;4.50;;;0.90;;
2874;SDS011;1445;52.600;13.328;2022-09-17T14:42:56;5.70;;;0.85;;
2874;SDS011;1445;52.600;13.328;2022-09-17T14:45:31;6.07;;;0.80;;
2874;SDS011;1445;52.600;13.328;2022-09-17T14:50:41;1.80;;;0.68;;
2874;SDS011;1445;52.600;13.328;2022-09-17T14:53:07;1.50;;;0.50;;
2874;SDS011;1445;52.600;13.328;2022-09-17T14:55:32;0.80;;;0.52;;
2874;SDS011;1445;52.600;13.328;2022-09-17T14:57:58;0.75;;;0.40;;
2874;SDS011;1445;52.600;13.328;2022-09-17T15:00:32;1.50;;;0.50;;
2874;SDS011;1445;52.600;13.328;2022-09-17T15:02:58;0.70;;;0.40;;
2874;SDS011;1445;52.600;13.328;2022-09-17T15:07:50;1.65;;;0.40;;
2874;SDS011;1445;52.600;13.328;2022-09-17T15:10:19;2.38;;;0.68;;
2874;SDS011;1445;52.600;13.328;2022-09-17T15:12:45;0.40;;;0.30;;
2874;SDS011;1445;52.600;13.328;2022-09-17T15:15:15;1.02;;;0.30;;
2874;SDS011;1445;52.600;13.328;2022-09-17T15:17:41;0.30;;;0.20;;
2874;SDS011;1445;52.600;13.328;2022-09-17T15:20:09;0.82;;;0.40;;
2874;SDS011;1445;52.600;13.328;2022-09-17T15:22:39;4.10;;;0.50;;
2874;SDS011;1445;52.600;13.328;2022-09-17T15:25:09;0.85;;;0.35;;
2874;SDS011;1445;52.600;13.328;2022-09-17T15:27:39;0.88;;;0.40;;
2874;SDS011;1445;52.600;13.328;2022-09-17T15:32:34;1.38;;;0.50;;
2874;SDS011;1445;52.600;13.328;2022-09-17T15:37:46;1.42;;;0.50;;
2874;SDS011;1445;52.600;13.328;2022-09-17T15:40:23;1.52;;;0.50;;
2874;SDS011;1445;52.600;13.328;2022-09-17T15:42:50;1.95;;;0.60;;
2874;SDS011;1445;52.600;13.328;2022-09-17T15:50:22;1.65;;;0.50;;
2874;SDS011;1445;52.600;13.328;2022-09-17T15:52:48;3.95;;;1.05;;
2874;SDS011;1445;52.600;13.328;2022-09-17T15:55:26;1.15;;;0.70;;
2874;SDS011;1445;52.600;13.328;2022-09-17T15:57:53;2.35;;;0.43;;
2874;SDS011;1445;52.600;13.328;2022-09-17T16:00:19;1.85;;;0.88;;
2874;SDS011;1445;52.600;13.328;2022-09-17T16:02:44;4.45;;;0.85;;
2874;SDS011;1445;52.600;13.328;2022-09-17T16:07:37;1.77;;;0.70;;
2874;SDS011;1445;52.600;13.328;2022-09-17T16:10:03;1.60;;;0.60;;
2874;SDS011;1445;52.600;13.328;2022-09-17T16:12:28;2.17;;;0.70;;
2874;SDS011;1445;52.600;13.328;2022-09-17T16:14:55;2.88;;;0.50;;
2874;SDS011;1445;52.600;13.328;2022-09-17T16:17:28;2.58;;;0.60;;
2874;SDS011;1445;52.600;13.328;2022-09-17T16:19:56;2.40;;;0.47;;
2874;SDS011;1445;52.600;13.328;2022-09-17T16:22:22;2.13;;;0.60;;
2874;SDS011;1445;52.600;13.328;2022-09-17T16:24:48;4.28;;;0.70;;
2874;SDS011;1445;52.600;13.328;2022-09-17T16:27:37;3.22;;;0.65;;
2874;SDS011;1445;52.600;13.328;2022-09-17T16:30:00;1.63;;;0.68;;
2874;SDS011;1445;52.600;13.328;2022-09-17T16:32:26;2.20;;;0.70;;
2874;SDS011;1445;52.600;13.328;2022-09-17T16:34:52;2.08;;;0.80;;
2874;SDS011;1445;52.600;13.328;2022-09-17T16:37:17;2.28;;;0.68;;
2874;SDS011;1445;52.600;13.328;2022-09-17T16:39:42;1.88;;;0.50;;
2874;SDS011;1445;52.600;13.328;2022-09-17T16:42:07;2.03;;;0.70;;
2874;SDS011;1445;52.600;13.328;2022-09-17T16:44:33;1.98;;;0.60;;
2874;SDS011;1445;52.600;13.328;2022-09-17T16:46:58;2.67;;;0.70;;
2874;SDS011;1445;52.600;13.328;2022-09-17T16:49:23;1.55;;;0.50;;
2874;SDS011;1445;52.600;13.328;2022-09-17T16:51:48;3.22;;;0.90;;
2874;SDS011;1445;52.600;13.328;2022-09-17T16:54:14;4.03;;;0.98;;
2874;SDS011;1445;52.600;13.328;2022-09-17T16:56:39;1.75;;;0.85;;
2874;SDS011;1445;52.600;13.328;2022-09-17T16:59:04;1.52;;;0.65;;
2874;SDS011;1445;52.600;13.328;2022-09-17T17:01:29;3.00;;;0.57;;
2874;SDS011;1445;52.600;13.328;2022-09-17T17:03:55;3.75;;;1.17;;
2874;SDS011;1445;52.600;13.328;2022-09-17T17:06:23;2.33;;;0.75;;
2874;SDS011;1445;52.600;13.328;2022-09-17T17:08:48;1.08;;;0.73;;
2874;SDS011;1445;52.600;13.328;2022-09-17T17:11:14;2.83;;;0.80;;
2874;SDS011;1445;52.600;13.328;2022-09-17T17:13:42;3.85;;;1.13;;
2874;SDS011;1445;52.600;13.328;2022-09-17T17:16:08;2.75;;;0.60;;
2874;SDS011;1445;52.600;13.328;2022-09-17T17:18:33;3.30;;;0.82;;
2874;SDS011;1445;52.600;13.328;2022-09-17T17:21:05;1.83;;;0.80;;
2874;SDS011;1445;52.600;13.328;2022-09-17T17:23:31;4.18;;;1.25;;
2874;SDS011;1445;52.600;13.328;2022-09-17T17:25:56;1.67;;;0.60;;
2874;SDS011;1445;52.600;13.328;2022-09-17T17:28:22;1.50;;;0.70;;
2874;SDS011;1445;52.600;13.328;2022-09-17T17:30:47;1.10;;;0.50;;
2874;SDS011;1445;52.600;13.328;2022-09-17T17:33:12;2.20;;;0.60;;
2874;SDS011;1445;52.600;13.328;2022-09-17T17:35:38;2.75;;;0.98;;
2874;SDS011;1445;52.600;13.328;2022-09-17T17:38:03;1.75;;;0.60;;
2874;SDS011;1445;52.600;13.328;2022-09-17T17:40:28;2.33;;;0.93;;
2874;SDS011;1445;52.600;13.328;2022-09-17T17:42:53;3.13;;;0.70;;
2874;SDS011;1445;52.600;13.328;2022-09-17T17:45:19;2.63;;;0.70;;
2874;SDS011;1445;52.600;13.328;2022-09-17T17:47:44;3.85;;;1.00;;
2874;SDS011;1445;52.600;13.328;2022-09-17T17:50:09;3.25;;;0.70;;
2874;SDS011;1445;52.600;13.328;2022-09-17T17:52:35;2.40;;;0.88;;
2874;SDS011;1445;52.600;13.328;2022-09-17T17:55:03;4.95;;;0.80;;
2874;SDS011;1445;52.600;13.328;2022-09-17T17:57:28;1.83;;;0.60;;
2874;SDS011;1445;52.600;13.328;2022-09-17T17:59:54;2.80;;;0.90;;
2874;SDS011;1445;52.600;13.328;2022-09-17T18:02:19;2.97;;;0.90;;
2874;SDS011;1445;52.600;13.328;2022-09-17T18:04:44;2.90;;;0.90;;
2874;SDS011;1445;52.600;13.328;2022-09-17T18:07:10;3.20;;;0.98;;